PST,Max TemperatureF,Mean TemperatureF,Min TemperatureF,Max Dew PointF,MeanDew PointF,Min DewpointF,Max Humidity, Mean Humidity, Min Humidity, Max Sea Level PressureIn, Mean Sea Level PressureIn, Min Sea Level PressureIn, Max VisibilityMiles, Mean VisibilityMiles, Min VisibilityMiles, Max Wind SpeedMPH, Mean Wind SpeedMPH, Max Gust SpeedMPH,PrecipitationIn, CloudCover, Events, WindDirDegrees
2013-1-1,23,16,10,23,20,10,100,100,100,30.65,30.52,30.37,10,10,10,10,4,,0.00,8,Snow,228
2013-1-2,24,19,14,25,21,14,100,100,93,30.64,30.52,30.39,10,10,2,8,4,,0.00,6,Snow,16
2013-1-3,21,14,6,21,15,7,100,100,100,30.50,30.34,30.26,10,7,0,8,4,,0.00,0,Fog-Snow,34
2013-1-4,25,21,17,26,22,18,100,100,100,30.45,30.35,30.29,10,10,10,9,5,,0.00,8,Snow,43
2013-1-5,32,26,21,32,26,21,100,100,100,30.43,30.27,30.14,10,10,4,10,6,,0.00,7,Snow,39
2013-1-6,28,26,23,29,26,23,100,100,100,30.23,30.10,30.02,10,6,1,10,4,,0.05,8,Rain-Snow,185
2013-1-7,36,32,28,36,32,28,100,100,100,30.09,29.89,29.77,10,4,0,28,11,37,0.21,7,Fog-Rain-Snow,179
2013-1-8,40,36,32,40,34,32,100,100,100,30.16,29.97,29.81,10,6,0,24,11,36,0.05,7,Fog-Rain-Snow,177
2013-1-9,41,36,30,41,37,30,100,100,93,29.86,29.69,29.58,10,10,10,24,17,32,0.02,6,Snow,184
2013-1-10,30,26,21,30,26,21,100,100,99,29.91,29.80,29.73,10,9,2,18,8,,0.01,7,Snow,279
2013-1-11,27,18,10,25,19,10,100,93,67,30.28,30.10,29.83,10,9,0,12,8,,0.00,3,Fog-Snow,318
2013-1-12,19,12,6,20,16,6,100,100,93,30.41,30.29,30.17,10,9,3,10,5,,0.00,6,,249
2013-1-13,19,12,6,19,15,7,100,99,73,30.51,30.40,30.27,10,10,7,6,3,,0.00,6,Snow,152
2013-1-14,23,19,15,23,20,16,100,100,100,30.52,30.33,30.24,10,9,1,8,4,,0.01,8,Snow,133
2013-1-15,28,22,15,28,22,16,100,100,99,30.65,30.49,30.37,10,7,0,8,2,,0.00,7,Fog-Snow,146
2013-1-16,26,20,14,27,21,14,100,100,100,30.64,30.51,30.47,10,3,0,7,2,,0.00,4,Fog-Rain-Snow,56
2013-1-17,21,18,14,21,18,14,100,100,96,30.63,30.44,30.31,10,1,0,6,2,,0.00,6,Fog-Snow,60
2013-1-18,24,18,12,24,18,12,100,100,99,30.42,30.32,30.22,8,3,0,6,2,,0.00,1,Fog-Snow,50
2013-1-19,24,17,10,25,16,10,100,100,99,30.50,30.35,30.28,10,4,0,5,1,,0.00,1,Fog-Snow,40
2013-1-20,26,17,8,26,18,9,100,100,99,30.57,30.41,30.34,10,4,0,6,2,,0.00,0,Fog-Snow,331
2013-1-21,21,12,4,21,13,4,100,100,100,30.45,30.31,30.23,10,4,0,8,1,,0.00,1,Fog-Snow,325
2013-1-22,22,13,5,22,17,5,100,100,100,30.40,30.23,30.11,10,2,0,7,2,,0.00,6,Fog-Snow,40
2013-1-23,32,26,20,32,27,20,100,100,100,30.21,29.99,29.87,10,8,1,22,6,,0.00,6,Rain-Snow,36
2013-1-24,30,26,21,30,25,21,100,100,100,30.30,30.17,30.03,10,5,0,12,5,,0.00,8,Fog-Rain-Snow,78
2013-1-25,37,34,30,38,34,30,100,100,99,30.16,29.98,29.88,10,4,0,8,5,,0.29,8,Fog-Rain,116
2013-1-26,35,32,28,36,32,29,100,100,99,29.99,29.89,29.83,10,5,0,17,8,22,0.00,8,Fog-Rain,204
2013-1-27,30,27,24,30,27,25,100,100,100,30.04,29.95,29.89,10,6,0,10,6,,0.01,8,Fog-Snow,207
2013-1-28,32,29,26,32,28,26,100,100,99,29.96,29.88,29.80,10,8,1,16,8,,0.02,8,Rain-Snow,212
2013-1-29,33,28,24,34,29,25,100,100,100,30.22,30.01,29.82,10,4,0,13,3,,0.06,8,Fog-Rain-Snow,237
2013-1-30,38,33,28,39,33,28,100,100,100,30.27,30.15,30.07,10,7,0,16,9,,0.00,5,Fog,206
2013-1-31,37,34,32,37,34,32,100,99,81,30.30,30.22,30.15,10,4,0,14,8,,0.00,7,Fog-Rain,194